Nonantum, Massachusetts
Current Conditions -  °F | °C
As of 12:54 AM on Saturday 20 Dec 2014 (Local Time) from KBOS Reporting Station
Clear Clear  
Wind Chill: 21°   Ceiling: Unl
Heat Index: 28°   Visibility: 10mi
Dew Point: 21°   Wind: 7mph
Humidity: 75%   Direction: 320°NW
Pressure: 30.17"   Gusts: NA
Location:  42.35°N, 71.18°W
Report Text: KBOS 200554Z 32006KT 10SM CLR M02/M06 A3017 RMK AO2 SLP214 T10221061 10000 21022 53012
Loading
Personal Weather Stations






























Interactive Weather Map New forecast layout! Learn more

10-Day Weather Forecast

Advertisements
Track Severe Weather on mobile